Terminal Aerodrome Forecast
Issued by NWS Charleston, WV

Home | Current Version | Previous Version | Text Only | Print | Product List | Glossary On
Versions: 1 2 3 4 5 6 7 8 9 10 11 12 13 14 15 16 17 18 19 20 21 22 23 24
000
FTUS41 KRLX 012300
TAFEKN
TAF
KEKN 012340Z 0200/0224 18005KT P6SM SCT120
     FM020200 00000KT 5SM BR BKN080
     FM020600 00000KT 2SM BR BKN070
     FM021200 00000KT 3SM BR BKN030
     FM021300 00000KT P6SM BKN030
     FM021800 10004KT P6SM BKN040
     FM021900 VRB03KT P6SM BKN250=

USA.gov is the U.S. government's official web portal to all federal, state and local government web resources and services.